Time;durP1;ratioP1;P1;durP2;ratioP2;P2;SDS_P1;SDS_P2;PMS_P1;PMS_P2;Temp;Humidity;BMP_temperature;BMP_pressure;BME280_temperature;BME280_humidity;BME280_pressure;Samples;Min_cycle;Max_cycle;Signal;HPM_P1;HPM_P2
2023/06/21 00:00:17;;;;;;;24.10;15.35;;;;;;;31.46;67.93;97426.53;4951071;28;20065;-67
2023/06/21 00:02:50;;;;;;;29.70;16.20;;;;;;;31.40;67.53;97419.75;4944175;28;20051;-66
2023/06/21 00:05:20;;;;;;;24.08;15.65;;;;;;;31.39;68.12;97431.84;4950293;28;20051;-67
2023/06/21 00:07:52;;;;;;;27.13;15.82;;;;;;;31.40;68.55;97444.38;4958571;28;20058;-67
2023/06/21 00:10:25;;;;;;;26.80;16.33;;;;;;;31.34;68.64;97443.06;4948876;28;20054;-67
2023/06/21 00:12:56;;;;;;;25.65;16.55;;;;;;;31.32;69.68;97432.50;4934057;28;20054;-67
2023/06/21 00:15:26;;;;;;;25.10;15.55;;;;;;;31.28;69.59;97447.25;4943540;28;20716;-67
2023/06/21 00:17:56;;;;;;;28.08;16.48;;;;;;;31.23;70.37;97442.88;4942514;28;20051;-68
2023/06/21 00:20:26;;;;;;;25.08;16.35;;;;;;;31.15;70.75;97449.34;4958626;28;20138;-68
2023/06/21 00:22:56;;;;;;;24.98;15.65;;;;;;;31.14;71.14;97447.75;4947344;28;20133;-67
2023/06/21 00:25:25;;;;;;;24.42;14.23;;;;;;;31.16;71.47;97457.16;4929843;28;20079;-68
2023/06/21 00:27:55;;;;;;;28.02;14.65;;;;;;;31.12;71.21;97466.44;4958668;28;20169;-68
2023/06/21 00:30:24;;;;;;;28.15;15.15;;;;;;;31.11;71.68;97475.81;4940912;28;20073;-66
2023/06/21 00:33:02;;;;;;;26.23;15.07;;;;;;;31.08;71.67;97476.50;4946343;28;20101;-68
2023/06/21 00:35:34;;;;;;;24.33;14.55;;;;;;;31.07;72.18;97477.69;4942195;28;20105;-67
2023/06/21 00:38:05;;;;;;;22.98;15.55;;;;;;;31.01;72.01;97477.16;4957682;28;20054;-67
2023/06/21 00:40:35;;;;;;;22.77;15.00;;;;;;;30.98;72.50;97479.78;4957675;28;20085;-67
2023/06/21 00:43:05;;;;;;;23.17;14.60;;;;;;;31.02;73.23;97481.50;4957490;28;20080;-68
2023/06/21 00:45:45;;;;;;;18.90;13.90;;;;;;;31.03;73.07;97494.00;4956794;28;20054;-66
2023/06/21 00:48:17;;;;;;;27.98;15.68;;;;;;;31.04;73.14;97490.13;4931651;28;20062;-67
2023/06/21 00:50:46;;;;;;;21.00;14.02;;;;;;;31.05;73.55;97504.59;4942210;28;20138;-67
2023/06/21 00:53:16;;;;;;;22.27;13.45;;;;;;;31.08;73.88;97493.72;4959722;28;20042;-68
2023/06/21 00:55:45;;;;;;;22.13;13.48;;;;;;;31.07;74.03;97496.84;4962935;28;20982;-67
2023/06/21 00:58:15;;;;;;;19.70;13.63;;;;;;;31.03;74.34;97499.47;4942167;28;20078;-67
2023/06/21 01:00:45;;;;;;;20.42;13.40;;;;;;;31.05;74.55;97504.59;4956899;28;20127;-68
2023/06/21 01:03:16;;;;;;;24.38;14.30;;;;;;;31.05;73.92;97508.13;4956140;28;20153;-67
2023/06/21 01:05:59;;;;;;;18.65;13.45;;;;;;;31.04;73.61;97512.00;4940537;28;20061;-67
2023/06/21 01:08:41;;;;;;;;;;;;;;;31.05;74.19;97510.84;4947263;28;20058;-68
2023/06/21 01:11:19;;;;;;;20.27;12.63;;;;;;;31.03;74.13;97523.28;4956326;28;19926;-67
2023/06/21 01:14:24;;;;;;;21.33;13.82;;;;;;;31.04;74.15;97528.41;4905928;28;20055;-67
2023/06/21 01:16:55;;;;;;;24.60;12.88;;;;;;;31.13;73.83;97525.50;4940114;28;20046;-66
2023/06/21 01:19:37;;;;;;;17.65;12.05;;;;;;;31.26;74.60;97531.63;4926176;28;20181;-66
2023/06/21 01:22:23;;;;;;;20.15;12.10;;;;;;;31.23;74.13;97532.38;4958103;28;20053;-67
2023/06/21 01:25:17;;;;;;;19.25;10.85;;;;;;;31.32;73.97;97536.50;4934426;28;20066;-68
2023/06/21 01:27:59;;;;;;;16.15;11.05;;;;;;;31.37;73.46;97535.44;4941998;28;20401;-67
2023/06/21 01:30:31;;;;;;;25.50;11.85;;;;;;;31.41;74.00;97541.78;4941126;28;20054;-68
2023/06/21 01:33:05;;;;;;;15.83;10.53;;;;;;;31.45;74.16;97535.22;4947294;28;20057;-68
2023/06/21 01:35:35;;;;;;;18.63;10.35;;;;;;;31.38;72.97;97545.22;4956041;28;20058;-67
2023/06/21 01:38:05;;;;;;;17.55;9.57;;;;;;;31.29;72.12;97552.84;4940306;28;20515;-67
2023/06/21 01:40:38;;;;;;;23.50;9.85;;;;;;;31.25;72.72;97552.72;4941440;28;20081;-67
2023/06/21 01:43:08;;;;;;;18.20;9.52;;;;;;;31.17;72.06;97551.78;4941421;28;20066;-67
2023/06/21 01:45:38;;;;;;;25.42;9.60;;;;;;;31.21;72.03;97555.38;4940877;28;20061;-67
2023/06/21 01:48:09;;;;;;;18.30;9.20;;;;;;;31.31;71.98;97556.78;4930193;28;20865;-67
2023/06/21 01:50:40;;;;;;;15.20;8.60;;;;;;;31.37;72.12;97571.81;4943858;28;20069;-68
2023/06/21 01:53:13;;;;;;;18.02;9.05;;;;;;;31.46;71.82;97582.56;4962352;28;20058;-68
2023/06/21 01:55:51;;;;;;;15.20;8.60;;;;;;;31.68;70.32;97567.44;4945890;28;20062;-67
2023/06/21 01:58:21;;;;;;;17.52;8.68;;;;;;;31.85;69.50;97580.72;4961066;28;20053;-67
2023/06/21 02:00:51;;;;;;;18.55;7.82;;;;;;;32.07;68.98;97575.31;4928741;28;20104;-68
2023/06/21 02:03:23;;;;;;;21.25;8.48;;;;;;;32.29;67.98;97571.09;4942652;28;20153;-67
2023/06/21 02:05:54;;;;;;;15.30;7.97;;;;;;;32.58;67.80;97580.63;4944222;28;20055;-67
2023/06/21 02:08:25;;;;;;;20.35;8.20;;;;;;;32.71;66.02;97584.03;4942601;28;20210;-67
2023/06/21 02:10:55;;;;;;;18.77;8.30;;;;;;;32.84;66.00;97586.22;4960611;28;20124;-67
2023/06/21 02:13:26;;;;;;;18.23;7.32;;;;;;;32.96;65.43;97586.06;4942252;28;20590;-67
2023/06/21 02:15:56;;;;;;;15.82;8.30;;;;;;;33.17;65.21;97584.84;4947226;28;20525;-67
2023/06/21 02:18:26;;;;;;;21.70;8.18;;;;;;;33.28;65.13;97594.06;4941603;28;20054;-67
2023/06/21 02:20:57;;;;;;;16.08;8.27;;;;;;;33.15;64.59;97587.19;4948662;28;20060;-67
2023/06/21 02:23:27;;;;;;;14.52;7.30;;;;;;;33.15;65.24;97592.69;4942035;28;20055;-67
2023/06/21 02:25:56;;;;;;;20.25;8.25;;;;;;;33.45;65.11;97593.56;4943931;28;20062;-67
2023/06/21 02:28:26;;;;;;;18.35;8.13;;;;;;;33.42;63.23;97603.31;4941413;28;20054;-67
2023/06/21 02:30:55;;;;;;;16.30;8.00;;;;;;;33.57;63.87;97603.53;4943675;28;20706;-66
2023/06/21 02:33:25;;;;;;;16.95;7.95;;;;;;;33.63;61.65;97597.34;4958622;28;20387;-68
2023/06/21 02:35:55;;;;;;;19.60;8.00;;;;;;;33.36;61.95;97598.50;4944213;28;20162;-66
2023/06/21 02:38:27;;;;;;;18.70;8.53;;;;;;;33.65;62.22;97597.75;4936617;28;20055;-66
2023/06/21 02:40:58;;;;;;;13.85;8.07;;;;;;;33.49;60.97;97608.13;4940843;28;20639;-67
2023/06/21 02:43:28;;;;;;;16.30;8.10;;;;;;;33.62;62.90;97603.22;4944733;28;20053;-65
2023/06/21 02:45:57;;;;;;;17.08;7.80;;;;;;;33.88;61.71;97599.66;4928380;28;20065;-67
2023/06/21 02:48:27;;;;;;;23.48;8.80;;;;;;;33.77;60.99;97611.28;4930395;28;20058;-67
2023/06/21 02:50:57;;;;;;;14.23;7.65;;;;;;;33.87;61.41;97618.09;4950320;28;20142;-68
2023/06/21 02:53:26;;;;;;;15.57;8.40;;;;;;;33.67;62.12;97616.66;4926398;28;20058;-66
2023/06/21 02:55:56;;;;;;;16.30;7.50;;;;;;;33.82;63.63;97621.19;4929972;28;20094;-68
2023/06/21 02:58:25;;;;;;;17.27;8.63;;;;;;;33.96;63.60;97617.84;4941007;28;20054;-66
2023/06/21 03:00:58;;;;;;;16.10;9.40;;;;;;;33.93;62.46;97607.59;4925286;28;20447;-65
2023/06/21 03:03:28;;;;;;;17.98;9.90;;;;;;;33.53;63.41;97602.69;4946479;28;20398;-67
2023/06/21 03:05:59;;;;;;;17.23;9.20;;;;;;;33.01;63.75;97608.88;4944019;28;20046;-66
2023/06/21 03:08:31;;;;;;;20.45;9.65;;;;;;;32.91;64.02;97616.53;4963786;28;20494;-66
2023/06/21 03:11:01;;;;;;;17.13;8.63;;;;;;;33.05;65.81;97615.22;4933561;28;20058;-67
2023/06/21 03:13:31;;;;;;;15.60;9.80;;;;;;;33.10;65.58;97615.69;4934229;28;20053;-66
2023/06/21 03:16:02;;;;;;;19.48;8.65;;;;;;;32.97;65.56;97609.59;4944714;28;20070;-67
2023/06/21 03:18:32;;;;;;;21.85;9.07;;;;;;;33.01;66.29;97609.66;4934275;28;20194;-67
2023/06/21 03:21:02;;;;;;;21.45;10.10;;;;;;;33.17;66.49;97613.09;4916249;28;20065;-67
2023/06/21 03:23:32;;;;;;;18.75;10.32;;;;;;;32.85;65.00;97606.22;4933650;28;20066;-66
2023/06/21 03:26:03;;;;;;;22.83;9.68;;;;;;;32.78;66.17;97606.13;4958761;28;20093;-67
2023/06/21 03:28:33;;;;;;;21.00;9.23;;;;;;;32.90;67.47;97612.22;4961660;28;20692;-67
2023/06/21 03:31:02;;;;;;;15.32;9.43;;;;;;;32.71;66.57;97609.50;4941813;28;20086;-67
2023/06/21 03:33:32;;;;;;;17.85;9.00;;;;;;;32.91;66.61;97608.31;4928761;28;20051;-67
2023/06/21 03:36:03;;;;;;;17.02;10.30;;;;;;;32.96;65.82;97597.03;4950772;28;20046;-70
2023/06/21 03:38:34;;;;;;;16.90;9.82;;;;;;;33.13;64.68;97605.94;4945203;28;20054;-67
2023/06/21 03:41:04;;;;;;;17.42;9.18;;;;;;;33.15;64.59;97614.63;4962150;28;20050;-68
2023/06/21 03:43:33;;;;;;;21.08;9.52;;;;;;;33.62;64.88;97606.75;4943755;28;20502;-67
2023/06/21 03:46:07;;;;;;;15.13;9.65;;;;;;;34.02;64.31;97602.63;4958454;28;20058;-66
2023/06/21 03:48:38;;;;;;;19.15;9.90;;;;;;;34.15;61.85;97595.72;4926993;28;20082;-67
2023/06/21 03:51:08;;;;;;;23.35;10.13;;;;;;;34.42;61.01;97596.47;4925702;28;20053;-67
2023/06/21 03:53:38;;;;;;;17.73;9.40;;;;;;;34.63;60.32;97591.19;4944030;28;20054;-67
2023/06/21 03:56:10;;;;;;;20.10;10.10;;;;;;;35.13;59.71;97592.47;4930352;28;20051;-67
2023/06/21 03:58:41;;;;;;;15.40;9.90;;;;;;;35.36;59.13;97595.06;4937057;28;20051;-66
2023/06/21 04:01:11;;;;;;;22.70;9.90;;;;;;;35.25;57.58;97594.97;4932214;28;20466;-64
2023/06/21 04:03:41;;;;;;;21.25;8.75;;;;;;;35.72;57.77;97596.88;4932797;28;20547;-66
2023/06/21 04:06:10;;;;;;;19.02;9.43;;;;;;;35.80;56.95;97598.53;4927326;28;20051;-67
2023/06/21 04:08:40;;;;;;;21.13;8.88;;;;;;;35.91;56.33;97596.59;4947796;28;20440;-66
2023/06/21 04:11:09;;;;;;;25.02;8.82;;;;;;;35.85;55.64;97600.13;4943495;28;20050;-66
2023/06/21 04:13:40;;;;;;;17.13;8.65;;;;;;;36.46;54.77;97607.50;4960392;28;20458;-65
2023/06/21 04:16:10;;;;;;;20.00;9.20;;;;;;;36.33;54.33;97600.75;4945862;28;20042;-65
2023/06/21 04:18:42;;;;;;;22.40;9.40;;;;;;;36.12;55.40;97608.94;4931824;28;20466;-66
2023/06/21 04:21:11;;;;;;;27.10;10.02;;;;;;;36.09;54.95;97604.97;4941101;28;20687;-67
2023/06/21 04:23:41;;;;;;;17.95;9.70;;;;;;;36.01;54.77;97601.38;4925242;28;20082;-66
2023/06/21 04:26:12;;;;;;;25.30;9.73;;;;;;;35.90;55.16;97595.00;4958714;28;20108;-67
2023/06/21 04:28:43;;;;;;;23.10;8.68;;;;;;;36.55;54.51;97593.34;4947729;28;20050;-67
2023/06/21 04:31:14;;;;;;;23.77;9.02;;;;;;;36.55;54.54;97596.91;4941567;28;20184;-66
2023/06/21 04:33:43;;;;;;;20.85;8.45;;;;;;;36.70;54.46;97594.97;4947557;28;20047;-66
2023/06/21 04:36:17;;;;;;;28.25;9.57;;;;;;;36.79;54.11;97598.13;4957232;28;20050;-66
2023/06/21 04:38:49;;;;;;;26.35;10.20;;;;;;;36.71;52.00;97600.09;4956594;28;20053;-66
2023/06/21 04:41:19;;;;;;;;;;;;;;;37.23;53.26;97589.53;4929292;28;20054;-66
2023/06/21 04:43:48;;;;;;;17.45;9.00;;;;;;;36.83;51.95;97596.97;4940517;28;20325;-67
2023/06/21 04:46:21;;;;;;;20.08;9.23;;;;;;;36.84;52.33;97597.75;4956867;28;20050;-67
2023/06/21 04:48:51;;;;;;;20.60;9.80;;;;;;;37.07;55.79;97600.19;4958242;28;20050;-68
2023/06/21 04:51:20;;;;;;;16.80;8.60;;;;;;;37.38;55.02;97587.53;4957428;28;20614;-67
2023/06/21 04:53:50;;;;;;;13.43;9.10;;;;;;;37.54;52.33;97580.44;4958856;28;20058;-68
2023/06/21 04:56:19;;;;;;;24.20;8.88;;;;;;;37.44;52.61;97585.97;4946523;28;20054;-68
2023/06/21 04:58:49;;;;;;;23.15;8.77;;;;;;;37.71;50.09;97574.09;4957324;28;20145;-69
2023/06/21 05:01:19;;;;;;;22.08;9.57;;;;;;;37.97;51.55;97577.59;4958331;28;20063;-69
2023/06/21 05:03:51;;;;;;;22.00;9.75;;;;;;;37.60;50.87;97587.16;4943746;28;20047;-69
2023/06/21 05:06:22;;;;;;;;;;;;;;;37.93;50.09;97585.88;4938865;28;26173;-68
2023/06/21 05:08:53;;;;;;;21.13;9.05;;;;;;;37.55;52.02;97590.31;4937793;28;19930;-68
2023/06/21 05:11:23;;;;;;;23.75;9.57;;;;;;;37.83;51.43;97592.25;4938044;28;20055;-68
2023/06/21 05:13:52;;;;;;;24.33;9.95;;;;;;;38.02;52.10;97591.03;4937411;28;20066;-68
2023/06/21 05:16:22;;;;;;;27.27;9.80;;;;;;;37.92;50.01;97584.31;4938140;28;20148;-68
2023/06/21 05:18:51;;;;;;;19.88;9.07;;;;;;;37.85;53.10;97589.84;4936700;28;20059;-68
2023/06/21 05:21:21;;;;;;;14.25;8.02;;;;;;;38.07;50.09;97588.63;4938920;28;20159;-68
2023/06/21 05:23:50;;;;;;;22.75;9.27;;;;;;;38.14;51.83;97594.16;4935785;28;20559;-68
2023/06/21 05:26:21;;;;;;;29.17;9.35;;;;;;;37.64;50.26;97584.38;4936571;28;20055;-66
2023/06/21 05:28:51;;;;;;;32.17;9.73;;;;;;;37.71;51.45;97587.13;4940151;28;20059;-67
2023/06/21 05:31:20;;;;;;;25.00;9.30;;;;;;;38.13;50.35;97573.19;4928527;28;20052;-67
2023/06/21 05:33:53;;;;;;;;;;;;;;;38.58;49.11;97578.94;4942174;28;20087;-67
2023/06/21 05:36:23;;;;;;;23.52;8.77;;;;;;;38.53;48.49;97580.16;4939889;28;19938;-68
2023/06/21 05:38:52;;;;;;;18.75;9.00;;;;;;;38.16;52.81;97577.91;4941660;28;20065;-68
2023/06/21 05:41:21;;;;;;;22.75;9.48;;;;;;;38.09;50.46;97582.69;4941151;28;20231;-69
2023/06/21 05:43:52;;;;;;;21.20;9.88;;;;;;;37.98;50.65;97582.72;4936237;28;20074;-67
2023/06/21 05:46:21;;;;;;;29.10;9.27;;;;;;;37.81;50.81;97575.25;4926857;28;20118;-67
2023/06/21 05:48:51;;;;;;;25.33;10.15;;;;;;;37.76;50.50;97586.72;4932682;28;20588;-67
2023/06/21 05:51:20;;;;;;;26.27;8.80;;;;;;;37.82;50.54;97568.53;4938272;28;20142;-66
2023/06/21 05:53:50;;;;;;;21.20;9.10;;;;;;;38.11;51.95;97570.03;4935091;28;20059;-67
2023/06/21 05:56:19;;;;;;;22.65;9.05;;;;;;;38.25;48.93;97571.16;4935808;28;20055;-67
2023/06/21 05:58:49;;;;;;;22.85;8.65;;;;;;;38.33;51.69;97581.03;4926234;28;20145;-67
2023/06/21 06:01:18;;;;;;;30.50;9.38;;;;;;;38.08;49.31;97570.84;4938069;28;20063;-67
2023/06/21 06:03:53;;;;;;;24.70;9.32;;;;;;;38.26;50.61;97564.44;4937175;28;20142;-67
2023/06/21 06:06:36;;;;;;;23.27;8.38;;;;;;;38.35;49.48;97562.81;4946007;28;20424;-67
2023/06/21 06:09:07;;;;;;;20.67;8.23;;;;;;;38.53;50.62;97558.00;4938849;28;20058;-67
2023/06/21 06:11:38;;;;;;;20.42;9.52;;;;;;;38.61;49.23;97567.03;4940969;28;20052;-67
2023/06/21 06:14:09;;;;;;;22.00;8.80;;;;;;;38.05;52.15;97568.09;4939942;28;20126;-67
2023/06/21 06:16:39;;;;;;;18.90;8.73;;;;;;;38.36;50.19;97563.59;4929852;28;20273;-67
2023/06/21 06:19:08;;;;;;;22.25;10.55;;;;;;;38.18;49.37;97569.22;4938657;28;20662;-67
2023/06/21 06:21:38;;;;;;;20.58;8.98;;;;;;;38.28;50.34;97568.41;4913283;28;20059;-67
2023/06/21 06:24:07;;;;;;;21.13;9.80;;;;;;;38.37;48.57;97563.22;4939327;28;20177;-70
2023/06/21 06:26:37;;;;;;;19.40;7.80;;;;;;;38.50;48.38;97560.78;4928946;28;20149;-66
2023/06/21 06:29:06;;;;;;;23.67;9.68;;;;;;;38.17;47.19;97562.91;4936390;28;20202;-67
2023/06/21 06:31:36;;;;;;;25.63;8.68;;;;;;;38.41;48.25;97565.97;4938634;28;20063;-67
2023/06/21 06:34:06;;;;;;;22.17;8.25;;;;;;;38.46;50.47;97552.50;4939117;28;20772;-66
2023/06/21 06:36:36;;;;;;;20.30;8.25;;;;;;;38.67;50.46;97557.13;4932352;28;20063;-67
2023/06/21 06:39:06;;;;;;;22.92;8.70;;;;;;;38.82;47.34;97550.28;4941080;28;20086;-66
2023/06/21 06:41:36;;;;;;;25.73;8.70;;;;;;;38.80;49.39;97555.44;4941636;28;20078;-67
2023/06/21 06:44:05;;;;;;;15.77;8.50;;;;;;;38.69;48.89;97543.66;4940863;28;20050;-67
2023/06/21 06:46:35;;;;;;;22.52;9.30;;;;;;;39.08;48.46;97543.41;4941507;28;20047;-67
2023/06/21 06:49:04;;;;;;;19.40;8.80;;;;;;;39.03;48.19;97546.59;4940123;28;20077;-67
2023/06/21 06:51:33;;;;;;;15.38;8.93;;;;;;;38.85;47.51;97546.72;4941986;28;20145;-68
2023/06/21 06:54:03;;;;;;;29.90;9.23;;;;;;;38.85;46.92;97546.72;4946402;28;20142;-66
2023/06/21 06:56:33;;;;;;;19.30;9.55;;;;;;;38.98;48.76;97547.03;4940948;28;20061;-68
2023/06/21 06:59:03;;;;;;;29.98;9.82;;;;;;;38.87;48.96;97546.31;4943889;28;20075;-68
2023/06/21 07:01:32;;;;;;;20.05;8.82;;;;;;;38.93;47.03;97537.19;4945597;28;20043;-68
2023/06/21 07:04:01;;;;;;;24.08;8.07;;;;;;;38.94;46.84;97538.75;4926541;28;20059;-69
2023/06/21 07:06:31;;;;;;;18.35;8.68;;;;;;;39.04;48.79;97535.09;4956657;28;20047;-68
2023/06/21 07:09:02;;;;;;;20.67;8.63;;;;;;;38.90;46.88;97529.69;4941672;28;20596;-68
2023/06/21 07:11:32;;;;;;;20.98;7.80;;;;;;;39.18;46.84;97525.09;4940195;28;20526;-67
2023/06/21 07:14:01;;;;;;;15.23;8.30;;;;;;;39.34;47.34;97528.16;4929530;28;20118;-67
2023/06/21 07:16:34;;;;;;;20.42;7.90;;;;;;;39.31;47.25;97518.66;4940884;28;20770;-67
2023/06/21 07:19:04;;;;;;;21.88;8.23;;;;;;;39.24;48.12;97521.47;4940780;28;20062;-66
2023/06/21 07:21:33;;;;;;;16.40;8.35;;;;;;;39.22;49.80;97520.28;4941751;28;20219;-67
2023/06/21 07:24:03;;;;;;;23.60;8.55;;;;;;;39.17;46.88;97521.53;4940177;28;20062;-67
2023/06/21 07:26:33;;;;;;;30.15;9.88;;;;;;;39.08;45.30;97512.94;4942906;28;20059;-67
2023/06/21 07:29:03;;;;;;;19.35;8.43;;;;;;;39.22;52.46;97511.97;4941025;28;20170;-67
2023/06/21 07:31:32;;;;;;;16.63;8.48;;;;;;;38.85;47.03;97507.94;4948129;28;20070;-67
2023/06/21 07:34:02;;;;;;;24.42;8.15;;;;;;;38.78;49.42;97504.44;4941182;28;20110;-67
2023/06/21 07:36:37;;;;;;;26.67;8.82;;;;;;;38.47;49.21;97503.47;4939712;28;20059;-68
2023/06/21 07:39:09;;;;;;;21.42;9.35;;;;;;;38.52;49.29;97498.31;4919757;28;20070;-68
2023/06/21 07:41:39;;;;;;;23.83;8.93;;;;;;;38.35;49.51;97501.16;4940585;28;20154;-67
2023/06/21 07:44:09;;;;;;;25.33;8.35;;;;;;;38.30;49.33;97496.84;4939194;28;20046;-67
2023/06/21 07:46:39;;;;;;;21.05;7.32;;;;;;;38.47;48.82;97490.44;4941302;28;20051;-67
2023/06/21 07:49:08;;;;;;;23.23;9.25;;;;;;;38.51;51.53;97493.94;4940179;28;20059;-67
2023/06/21 07:51:38;;;;;;;22.90;8.52;;;;;;;38.27;48.77;97488.56;4931243;28;20055;-67
2023/06/21 07:54:10;;;;;;;18.23;7.57;;;;;;;38.53;50.93;97479.72;4941274;28;20068;-67
2023/06/21 07:56:40;;;;;;;27.30;8.93;;;;;;;38.24;48.76;97470.78;4941548;28;20365;-66
2023/06/21 07:59:09;;;;;;;21.00;8.45;;;;;;;38.50;49.32;97473.03;4941696;28;20051;-67
2023/06/21 08:01:39;;;;;;;19.63;9.23;;;;;;;38.48;48.56;97469.88;4928281;28;20130;-67
2023/06/21 08:04:08;;;;;;;17.33;9.02;;;;;;;38.44;51.10;97473.84;4954776;28;20085;-66
2023/06/21 08:06:38;;;;;;;18.27;8.75;;;;;;;38.39;49.01;97468.72;4932350;28;20056;-67
2023/06/21 08:09:07;;;;;;;22.83;8.30;;;;;;;38.40;51.61;97465.56;4941886;28;20055;-67
2023/06/21 08:11:37;;;;;;;20.48;8.95;;;;;;;38.51;50.22;97459.94;4941320;28;20055;-67
2023/06/21 08:14:08;;;;;;;22.58;8.10;;;;;;;38.49;50.68;97460.38;4942909;28;20167;-66
2023/06/21 08:16:38;;;;;;;22.55;9.20;;;;;;;38.50;50.48;97453.66;4960458;28;20467;-67
2023/06/21 08:19:08;;;;;;;20.00;8.50;;;;;;;38.49;47.79;97451.28;4932233;28;20050;-67
2023/06/21 08:21:37;;;;;;;19.90;9.52;;;;;;;38.50;49.70;97452.88;4960286;28;20382;-67
2023/06/21 08:24:06;;;;;;;18.13;8.13;;;;;;;38.46;49.57;97441.81;4958950;28;21139;-66
2023/06/21 08:26:36;;;;;;;14.82;7.95;;;;;;;38.53;48.91;97435.44;4952245;28;20050;-66
2023/06/21 08:29:05;;;;;;;15.50;8.20;;;;;;;38.64;48.22;97430.59;4959356;28;20483;-66
2023/06/21 08:31:34;;;;;;;17.50;7.95;;;;;;;38.65;47.40;97426.63;4959560;28;20058;-66
2023/06/21 08:34:05;;;;;;;23.20;8.73;;;;;;;38.56;48.30;97434.63;4959246;28;20050;-67
2023/06/21 08:36:34;;;;;;;19.45;8.60;;;;;;;38.62;48.14;97425.47;4959917;28;20141;-67
2023/06/21 08:39:04;;;;;;;22.77;9.43;;;;;;;38.65;48.14;97432.16;4937087;28;20133;-66
2023/06/21 08:41:39;;;;;;;24.35;8.80;;;;;;;38.47;47.34;97423.22;4939736;28;20051;-67
2023/06/21 08:44:10;;;;;;;19.30;8.77;;;;;;;38.29;47.93;97419.75;4940680;28;20077;-67
2023/06/21 08:46:42;;;;;;;23.05;9.80;;;;;;;38.41;48.32;97424.84;4958931;28;20507;-66
2023/06/21 08:49:18;;;;;;;16.63;9.10;;;;;;;38.46;49.30;97407.84;4958492;28;20053;-67
2023/06/21 08:51:48;;;;;;;17.08;9.82;;;;;;;38.16;47.13;97413.94;4961039;28;20142;-67
2023/06/21 08:54:28;;;;;;;19.10;9.45;;;;;;;38.18;47.51;97406.81;4958824;28;20066;-66
2023/06/21 08:57:07;;;;;;;21.75;8.75;;;;;;;38.32;48.38;97405.94;4959972;28;20129;-67
2023/06/21 08:59:59;;;;;;;28.50;8.88;;;;;;;38.25;48.36;97399.63;4959541;28;20042;-67
2023/06/21 09:02:42;;;;;;;19.20;9.60;;;;;;;38.21;48.74;97403.22;4961331;28;20058;-67
2023/06/21 09:05:44;;;;;;;21.38;8.73;;;;;;;38.17;48.85;97402.47;4908016;28;20380;-67
2023/06/21 09:08:15;;;;;;;14.82;8.45;;;;;;;38.13;48.86;97390.66;4918400;28;20765;-66
2023/06/21 09:10:50;;;;;;;19.95;8.60;;;;;;;38.20;48.73;97384.25;4921988;28;20051;-66
2023/06/21 09:13:22;;;;;;;17.05;9.00;;;;;;;38.03;48.17;97385.19;4919817;28;20055;-67
2023/06/21 09:15:52;;;;;;;15.03;8.37;;;;;;;38.06;49.50;97384.38;4921271;28;20062;-67
2023/06/21 09:18:23;;;;;;;19.48;8.35;;;;;;;37.96;50.27;97385.22;4919324;28;20302;-67
2023/06/21 09:20:54;;;;;;;23.20;9.65;;;;;;;37.91;49.92;97378.13;4906282;29;20039;-68
2023/06/21 09:23:24;;;;;;;22.48;9.27;;;;;;;37.79;51.07;97370.31;4920980;28;20755;-67
2023/06/21 09:25:54;;;;;;;22.50;9.15;;;;;;;37.60;50.10;97366.06;4919273;28;20075;-68
2023/06/21 09:28:24;;;;;;;25.58;9.38;;;;;;;37.43;50.94;97368.88;4918321;28;20467;-67
2023/06/21 09:30:54;;;;;;;20.88;10.30;;;;;;;37.49;51.16;97365.28;4919188;28;20048;-68
2023/06/21 09:33:27;;;;;;;22.02;9.68;;;;;;;37.58;51.27;97357.38;4934811;28;20052;-68
2023/06/21 09:35:58;;;;;;;22.65;9.82;;;;;;;37.62;51.68;97355.38;4918271;28;20063;-68
2023/06/21 09:38:33;;;;;;;16.88;9.85;;;;;;;37.69;50.83;97360.09;4919147;28;20064;-68
2023/06/21 09:41:07;;;;;;;18.10;10.52;;;;;;;37.80;51.16;97355.28;4918266;28;20054;-67
2023/06/21 09:43:42;;;;;;;29.15;10.75;;;;;;;37.83;50.57;97357.25;4897008;29;20051;-68
2023/06/21 09:46:14;;;;;;;31.33;10.60;;;;;;;37.85;50.64;97351.28;4918596;28;20067;-68
2023/06/21 09:48:43;;;;;;;25.25;11.75;;;;;;;37.85;50.95;97341.03;4919835;28;20118;-68
2023/06/21 09:51:22;;;;;;;21.05;11.18;;;;;;;37.84;49.54;97344.22;4920865;28;20150;-68
2023/06/21 09:53:55;;;;;;;23.63;10.80;;;;;;;37.91;50.36;97333.88;4919212;28;20083;-67
2023/06/21 09:56:24;;;;;;;23.10;10.57;;;;;;;37.89;49.98;97327.97;4919052;28;20051;-67
2023/06/21 09:58:54;;;;;;;31.60;12.07;;;;;;;37.92;49.99;97323.63;4924138;28;20051;-69
2023/06/21 10:01:24;;;;;;;23.13;10.75;;;;;;;37.98;50.33;97322.00;4919391;28;20110;-66
2023/06/21 10:03:53;;;;;;;20.63;10.93;;;;;;;37.98;51.51;97320.03;4942239;28;20101;-67
2023/06/21 10:06:28;;;;;;;29.88;11.35;;;;;;;37.96;50.41;97314.09;4941680;28;20054;-67
2023/06/21 10:08:59;;;;;;;20.45;10.50;;;;;;;37.88;50.29;97320.88;4958394;28;20062;-67
2023/06/21 10:11:29;;;;;;;24.85;10.52;;;;;;;37.78;51.36;97311.47;4917719;28;20055;-68
2023/06/21 10:13:59;;;;;;;34.33;11.70;;;;;;;37.67;49.97;97307.97;4943433;28;20047;-68
2023/06/21 10:16:31;;;;;;;29.13;11.40;;;;;;;37.58;50.02;97310.41;4961964;28;20466;-69
2023/06/21 10:19:02;;;;;;;26.67;12.25;;;;;;;37.49;52.43;97312.03;4962201;28;20050;-68
2023/06/21 10:21:34;;;;;;;31.25;13.23;;;;;;;37.32;51.22;97316.44;4961404;28;20494;-68
2023/06/21 10:24:13;;;;;;;28.08;11.48;;;;;;;37.28;51.20;97319.22;4935167;28;20050;-68
2023/06/21 10:26:44;;;;;;;31.92;12.02;;;;;;;37.37;51.64;97306.94;4948748;28;20157;-67
2023/06/21 10:29:15;;;;;;;28.98;12.15;;;;;;;37.35;51.36;97304.59;4934447;28;20058;-67
2023/06/21 10:31:49;;;;;;;31.17;11.90;;;;;;;37.30;51.63;97293.97;4943854;28;20060;-67
2023/06/21 10:34:24;;;;;;;31.10;12.48;;;;;;;37.25;51.02;97295.19;4960579;28;21259;-68
2023/06/21 10:37:05;;;;;;;23.77;11.55;;;;;;;37.22;53.17;97292.44;4950433;28;20058;-67
2023/06/21 10:39:35;;;;;;;18.52;11.43;;;;;;;37.23;53.78;97289.25;4948240;28;20066;-67
2023/06/21 10:42:06;;;;;;;23.10;11.60;;;;;;;37.25;52.14;97288.88;4961342;28;20070;-67
2023/06/21 10:44:37;;;;;;;31.90;12.20;;;;;;;37.23;52.35;97294.78;4961056;28;20055;-67
2023/06/21 10:47:07;;;;;;;31.13;14.05;;;;;;;37.16;53.00;97289.31;4943327;28;20053;-67
2023/06/21 10:49:38;;;;;;;30.88;13.02;;;;;;;37.15;52.43;97290.47;4945034;28;20050;-67
2023/06/21 10:52:09;;;;;;;30.05;12.70;;;;;;;37.05;53.85;97280.22;4961098;28;20054;-67
2023/06/21 10:54:40;;;;;;;37.05;14.07;;;;;;;37.04;52.86;97278.69;4961562;28;20237;-67
2023/06/21 10:57:10;;;;;;;24.98;13.00;;;;;;;36.99;54.22;97279.09;4960408;28;20478;-67
2023/06/21 10:59:42;;;;;;;30.50;13.40;;;;;;;36.90;54.72;97271.25;4942424;28;20051;-67
2023/06/21 11:02:13;;;;;;;33.42;14.63;;;;;;;36.83;55.63;97276.78;4962095;28;20063;-67
2023/06/21 11:05:16;;;;;;;22.83;13.65;;;;;;;36.75;55.93;97271.69;4924145;28;20113;-67
2023/06/21 11:07:55;;;;;;;29.65;13.82;;;;;;;36.70;55.61;97266.56;4941059;28;20066;-68
2023/06/21 11:10:53;;;;;;;27.52;13.90;;;;;;;36.60;55.16;97264.66;4938800;28;20059;-67
2023/06/21 11:13:40;;;;;;;29.60;13.40;;;;;;;36.66;54.93;97252.00;4939893;28;20059;-67
2023/06/21 11:16:18;;;;;;;30.10;13.43;;;;;;;36.67;54.06;97251.59;4580809;28;9999868;-66
2023/06/21 11:19:00;;;;;;;33.47;13.38;;;;;;;36.58;56.07;97256.72;4940255;28;20339;-66
2023/06/21 11:21:41;;;;;;;34.42;12.18;;;;;;;36.57;53.03;97252.38;4938853;28;20086;-67
2023/06/21 11:24:16;;;;;;;26.08;11.32;;;;;;;36.56;53.80;97259.09;4941321;28;20097;-66
2023/06/21 11:27:00;;;;;;;34.63;13.38;;;;;;;36.59;51.68;97249.25;4938545;28;20055;-68
2023/06/21 11:29:36;;;;;;;36.28;11.43;;;;;;;36.71;50.62;97249.63;4926412;28;20055;-66
2023/06/21 11:32:15;;;;;;;25.23;9.90;;;;;;;36.65;50.84;97250.41;4938495;28;20039;-67
2023/06/21 11:34:56;;;;;;;27.85;8.13;;;;;;;36.62;50.23;97242.94;4939371;28;20055;-67
2023/06/21 11:37:44;;;;;;;37.70;9.52;;;;;;;36.63;50.50;97245.31;4939171;28;20047;-67
2023/06/21 11:40:18;;;;;;;31.23;9.98;;;;;;;36.57;52.24;97243.31;4937341;28;20067;-67
2023/06/21 11:42:49;;;;;;;30.15;8.80;;;;;;;36.53;52.26;97246.09;4940924;28;20058;-66
2023/06/21 11:45:35;;;;;;;29.58;8.13;;;;;;;36.53;52.66;97240.56;4937448;28;20423;-65